createdAt,value
2022-10-11T00:01:05.471Z,55.24
2022-10-11T00:03:33.142Z,55.30
2022-10-11T00:06:12.389Z,55.40
2022-10-11T00:08:40.082Z,54.99
2022-10-11T00:11:19.153Z,55.22
2022-10-11T00:13:47.017Z,54.90
2022-10-11T00:16:18.711Z,55.12
2022-10-11T00:18:57.359Z,54.92
2022-10-11T00:21:25.545Z,55.27
2022-10-11T00:23:53.243Z,55.03
2022-10-11T00:26:32.241Z,55.12
2022-10-11T00:29:00.004Z,55.39
2022-10-11T00:31:30.909Z,54.93
2022-10-11T00:34:02.672Z,55.21
2022-10-11T00:36:40.934Z,55.23
2022-10-11T00:39:19.979Z,55.38
2022-10-11T00:41:59.058Z,55.01
2022-10-11T00:44:37.685Z,55.09
2022-10-11T00:47:20.023Z,55.15
2022-10-11T00:49:59.215Z,55.13
2022-10-11T00:52:42.145Z,55.11
2022-10-11T00:55:14.263Z,55.11
2022-10-11T00:57:46.398Z,54.75
2022-10-11T01:00:27.528Z,55.28
2022-10-11T01:02:55.512Z,54.99
2022-10-11T01:05:29.634Z,54.99
2022-10-11T01:08:00.986Z,54.88
2022-10-11T01:10:41.512Z,55.09
2022-10-11T01:13:39.378Z,54.87
2022-10-11T01:16:33.484Z,55.20
2022-10-11T01:19:34.741Z,55.18
2022-10-11T01:22:31.634Z,54.95
2022-10-11T01:25:25.859Z,55.07
2022-10-11T01:28:35.360Z,54.97
2022-10-11T01:31:17.726Z,54.92
2022-10-11T01:34:06.594Z,54.64
2022-10-11T01:36:57.078Z,54.96
2022-10-11T01:39:41.559Z,54.96
2022-10-11T01:42:22.147Z,54.99
2022-10-11T01:44:51.790Z,55.03
2022-10-11T01:47:25.112Z,54.63
2022-10-11T01:49:57.821Z,54.67
2022-10-11T01:52:34.197Z,54.76
2022-10-11T01:55:10.847Z,54.87
2022-10-11T01:58:04.931Z,54.71
2022-10-11T02:00:59.680Z,54.60
2022-10-11T02:04:10.643Z,54.63
2022-10-11T02:07:04.503Z,54.43
2022-10-11T02:10:03.661Z,54.54
2022-10-11T02:12:49.322Z,54.36
2022-10-11T02:15:31.896Z,54.77
2022-10-11T02:18:16.967Z,54.30
2022-10-11T02:21:00.869Z,53.97
2022-10-11T02:23:42.574Z,54.24
2022-10-11T02:26:12.805Z,54.29
2022-10-11T02:28:56.886Z,54.17
2022-10-11T02:31:38.401Z,54.33
2022-10-11T02:34:37.847Z,54.42
2022-10-11T02:37:59.994Z,54.40
2022-10-11T02:40:45.154Z,54.17
2022-10-11T02:43:45.720Z,54.25
2022-10-11T02:46:26.533Z,54.18
2022-10-11T02:49:07.627Z,54.13
2022-10-11T02:51:46.959Z,53.93
2022-10-11T02:54:27.910Z,53.90
2022-10-11T02:56:55.766Z,54.07
2022-10-11T02:59:35.245Z,54.05
2022-10-11T03:02:14.188Z,54.13
2022-10-11T03:04:53.394Z,53.86
2022-10-11T03:07:33.560Z,54.20
2022-10-11T03:10:13.287Z,53.85
2022-10-11T03:12:52.765Z,53.96
2022-10-11T03:15:31.813Z,54.33
2022-10-11T03:18:10.774Z,53.88
2022-10-11T03:20:51.051Z,54.14
2022-10-11T03:23:30.301Z,53.88
2022-10-11T03:26:10.462Z,53.59
2022-10-11T03:28:50.140Z,54.03
2022-10-11T03:31:31.704Z,53.73
2022-10-11T03:34:11.200Z,53.98
2022-10-11T03:36:39.050Z,53.85
2022-10-11T03:39:06.974Z,53.86
2022-10-11T03:41:45.416Z,53.60
2022-10-11T03:44:25.721Z,53.66
2022-10-11T03:46:53.529Z,53.77
2022-10-11T03:49:34.209Z,53.50
2022-10-11T03:52:01.966Z,53.60
2022-10-11T03:54:40.862Z,53.42
2022-10-11T03:57:21.045Z,53.62
2022-10-11T04:00:02.453Z,53.51
2022-10-11T04:02:45.649Z,53.55
2022-10-11T04:05:25.451Z,53.51
2022-10-11T04:08:11.173Z,53.70
2022-10-11T04:10:50.886Z,53.94
2022-10-11T04:13:29.709Z,53.63
2022-10-11T04:16:09.135Z,53.49
2022-10-11T04:19:00.728Z,53.03
2022-10-11T04:21:40.525Z,53.17
2022-10-11T04:24:20.295Z,53.03
2022-10-11T04:27:00.748Z,53.40
2022-10-11T04:29:39.783Z,53.45
2022-10-11T04:32:22.432Z,53.18
2022-10-11T04:35:00.835Z,53.51
2022-10-11T04:37:39.835Z,53.04
2022-10-11T04:40:18.982Z,53.49
2022-10-11T04:42:58.892Z,53.28
2022-10-11T04:45:38.556Z,53.20
2022-10-11T04:48:18.424Z,53.62
2022-10-11T04:50:58.592Z,53.72
2022-10-11T04:53:37.985Z,53.49
2022-10-11T04:56:18.833Z,53.59
2022-10-11T04:59:00.304Z,53.54
2022-10-11T05:01:39.403Z,53.26
2022-10-11T05:04:18.617Z,53.20
2022-10-11T05:06:58.888Z,53.08
2022-10-11T05:09:38.449Z,52.83
2022-10-11T05:12:17.234Z,53.25
2022-10-11T05:14:57.853Z,52.97
2022-10-11T05:17:36.503Z,53.08
2022-10-11T05:20:18.149Z,53.33
2022-10-11T05:22:58.068Z,53.52
2022-10-11T05:25:39.206Z,53.60
2022-10-11T05:28:18.620Z,55.61
2022-10-11T05:30:57.596Z,54.17
2022-10-11T05:33:37.142Z,53.51
2022-10-11T05:36:17.222Z,53.07
2022-10-11T05:38:56.250Z,53.27
2022-10-11T05:41:46.206Z,53.30
2022-10-11T05:44:26.466Z,53.90
2022-10-11T05:47:07.774Z,53.96
2022-10-11T05:49:47.250Z,53.77
2022-10-11T05:52:28.591Z,53.29
2022-10-11T05:55:07.379Z,53.21
2022-10-11T05:57:46.784Z,52.90
2022-10-11T06:00:26.476Z,53.00
2022-10-11T06:03:08.567Z,52.50
2022-10-11T06:05:48.227Z,52.57
2022-10-11T06:08:30.694Z,52.76
2022-10-11T06:11:14.138Z,53.12
2022-10-11T06:14:05.126Z,53.11
2022-10-11T06:17:03.335Z,52.83
2022-10-11T06:19:55.311Z,52.68
2022-10-11T06:23:05.872Z,52.59
2022-10-11T06:26:10.665Z,52.84
2022-10-11T06:29:04.261Z,52.74
2022-10-11T06:31:59.958Z,52.83
2022-10-11T06:34:51.889Z,52.73
2022-10-11T06:38:04.583Z,52.63
2022-10-11T06:41:13.357Z,52.33
2022-10-11T06:44:14.501Z,52.36
2022-10-11T06:47:07.263Z,52.56
2022-10-11T06:50:03.311Z,52.13
2022-10-11T06:52:59.845Z,52.21
2022-10-11T06:56:01.155Z,51.93
2022-10-11T06:58:57.784Z,52.01
2022-10-11T07:01:52.354Z,52.33
2022-10-11T07:04:43.050Z,52.04
2022-10-11T07:07:37.914Z,51.86
2022-10-11T07:10:30.378Z,51.74
2022-10-11T07:13:25.771Z,51.76
2022-10-11T07:16:25.149Z,51.72
2022-10-11T07:19:21.242Z,51.96
2022-10-11T07:22:28.851Z,51.79
2022-10-11T07:25:20.592Z,51.85
2022-10-11T07:28:13.941Z,51.37
2022-10-11T07:31:16.099Z,51.52
2022-10-11T07:34:08.189Z,51.95
2022-10-11T07:37:02.763Z,51.74
2022-10-11T07:39:56.998Z,51.63
2022-10-11T07:42:49.003Z,52.31
2022-10-11T07:46:34.755Z,52.45
2022-10-11T07:49:27.499Z,52.47
2022-10-11T07:52:23.201Z,52.83
2022-10-11T07:55:16.098Z,52.17
2022-10-11T07:58:14.632Z,52.05
2022-10-11T08:01:08.288Z,52.16
2022-10-11T08:04:00.260Z,52.30
2022-10-11T08:06:53.610Z,52.12
2022-10-11T08:09:57.480Z,52.18
2022-10-11T08:12:51.436Z,51.62
2022-10-11T08:15:49.774Z,51.82
2022-10-11T08:18:42.433Z,51.90
2022-10-11T08:21:35.106Z,51.72
2022-10-11T08:24:27.625Z,52.06
2022-10-11T08:27:20.357Z,52.63
2022-10-11T08:30:17.642Z,52.87
2022-10-11T08:33:26.458Z,51.91
2022-10-11T08:36:23.065Z,51.66
2022-10-11T08:39:14.802Z,51.86
2022-10-11T08:42:15.306Z,51.68
2022-10-11T08:45:29.690Z,51.97
2022-10-11T08:48:07.154Z,51.76
2022-10-11T08:50:35.113Z,52.19
2022-10-11T08:53:15.481Z,52.07
2022-10-11T08:55:48.201Z,51.66
2022-10-11T08:58:22.619Z,52.20
2022-10-11T09:00:54.027Z,51.88
2022-10-11T09:03:40.993Z,51.83
2022-10-11T09:06:37.761Z,51.80
2022-10-11T09:09:24.083Z,51.94
2022-10-11T09:11:55.999Z,51.76
2022-10-11T09:14:35.732Z,51.75
2022-10-11T09:17:33.893Z,51.62
2022-10-11T09:20:24.901Z,51.81
2022-10-11T09:23:23.632Z,51.82
2022-10-11T09:26:03.617Z,51.74
2022-10-11T09:28:50.079Z,51.96
2022-10-11T09:31:18.376Z,51.76
2022-10-11T09:33:51.556Z,52.00
2022-10-11T09:36:28.728Z,51.97
2022-10-11T09:39:11.858Z,52.03
2022-10-11T09:41:59.534Z,52.09
2022-10-11T09:44:39.036Z,51.80
2022-10-11T09:47:12.337Z,52.27
2022-10-11T09:49:49.023Z,52.13
2022-10-11T09:52:21.245Z,52.05
2022-10-11T09:54:54.207Z,52.01
2022-10-11T09:57:24.056Z,52.16
2022-10-11T10:00:19.754Z,52.45
2022-10-11T10:02:49.436Z,52.49
2022-10-11T10:05:23.246Z,52.26
2022-10-11T10:08:02.817Z,52.70
2022-10-11T10:10:55.802Z,52.44
2022-10-11T10:13:39.702Z,52.68
2022-10-11T10:16:18.463Z,52.62
2022-10-11T10:18:55.001Z,53.01
2022-10-11T10:21:32.050Z,52.62
2022-10-11T10:24:06.377Z,52.76
2022-10-11T10:26:34.361Z,52.60
2022-10-11T10:29:05.412Z,52.56
2022-10-11T10:31:54.928Z,52.81
2022-10-11T10:34:31.771Z,52.71
2022-10-11T10:37:25.475Z,53.12
2022-10-11T10:40:18.823Z,52.90
2022-10-11T10:42:46.507Z,53.10
2022-10-11T10:45:21.885Z,53.00
2022-10-11T10:48:11.086Z,53.14
2022-10-11T10:50:54.895Z,53.10
2022-10-11T10:53:39.101Z,52.98
2022-10-11T10:56:20.008Z,53.09
2022-10-11T10:59:10.971Z,53.15
2022-10-11T11:02:35.546Z,53.16
2022-10-11T11:05:23.616Z,53.10
2022-10-11T11:08:24.359Z,52.93
2022-10-11T11:11:01.357Z,53.22
2022-10-11T11:13:44.082Z,53.25
2022-10-11T11:16:29.550Z,53.03
2022-10-11T11:19:00.303Z,53.15
2022-10-11T11:21:43.461Z,53.15
2022-10-11T11:24:18.731Z,52.90
2022-10-11T11:26:49.291Z,53.11
2022-10-11T11:29:17.882Z,52.81
2022-10-11T11:31:53.459Z,53.25
2022-10-11T11:34:55.515Z,52.94
2022-10-11T11:37:35.510Z,52.85
2022-10-11T11:40:18.870Z,52.81
2022-10-11T11:42:49.893Z,52.84
2022-10-11T11:45:43.276Z,52.43
2022-10-11T11:48:18.914Z,52.73
2022-10-11T11:51:14.844Z,52.45
2022-10-11T11:53:56.543Z,52.28
2022-10-11T11:56:29.737Z,52.53
2022-10-11T11:59:15.042Z,52.41
2022-10-11T12:02:01.623Z,52.11
2022-10-11T12:04:35.050Z,52.37
2022-10-11T12:07:17.658Z,52.71
2022-10-11T12:09:50.789Z,52.09
2022-10-11T12:12:32.583Z,52.28
2022-10-11T12:15:09.379Z,51.98
2022-10-11T12:17:58.048Z,52.02
2022-10-11T12:20:25.612Z,51.66
2022-10-11T12:22:53.925Z,51.89
2022-10-11T12:25:23.179Z,51.70
2022-10-11T12:27:53.137Z,51.75
2022-10-11T12:30:48.418Z,51.83
2022-10-11T12:33:22.158Z,51.98
2022-10-11T12:35:53.131Z,52.05
2022-10-11T12:38:25.503Z,51.99
2022-10-11T12:41:20.318Z,51.99
2022-10-11T12:43:47.970Z,52.22
2022-10-11T12:46:33.910Z,52.26
2022-10-11T12:49:32.525Z,52.39
2022-10-11T12:52:22.149Z,52.62
2022-10-11T12:55:22.310Z,52.74
2022-10-11T12:57:49.830Z,52.90
2022-10-11T13:00:35.482Z,52.74
2022-10-11T13:03:05.805Z,52.83
2022-10-11T13:05:44.959Z,52.82
2022-10-11T13:08:25.411Z,53.04
2022-10-11T13:10:55.904Z,52.93
2022-10-11T13:13:31.743Z,52.98
2022-10-11T13:16:04.561Z,52.96
2022-10-11T13:18:33.075Z,52.88
2022-10-11T13:21:00.876Z,52.74
2022-10-11T13:23:38.741Z,52.79
2022-10-11T13:26:06.342Z,52.88
2022-10-11T13:28:36.578Z,53.10
2022-10-11T13:31:05.980Z,52.89
2022-10-11T13:33:39.632Z,53.42
2022-10-11T13:36:15.586Z,53.51
2022-10-11T13:38:52.598Z,53.30
2022-10-11T13:41:20.935Z,53.50
2022-10-11T13:43:49.820Z,53.34
2022-10-11T13:46:23.603Z,53.26
2022-10-11T13:49:37.668Z,53.64
2022-10-11T13:52:26.475Z,53.52
2022-10-11T13:54:59.020Z,53.20
2022-10-11T13:57:46.372Z,53.65
2022-10-11T14:00:19.674Z,53.49
2022-10-11T14:02:54.938Z,53.91
2022-10-11T14:05:44.712Z,53.76
2022-10-11T14:08:38.940Z,54.09
2022-10-11T14:11:08.179Z,53.95
2022-10-11T14:13:43.638Z,54.07
2022-10-11T14:16:21.201Z,54.13
2022-10-11T14:19:10.193Z,54.17
2022-10-11T14:21:45.439Z,54.14
2022-10-11T14:24:16.538Z,54.27
2022-10-11T14:26:48.307Z,54.22
2022-10-11T14:29:26.516Z,54.49
2022-10-11T14:32:01.464Z,54.28
2022-10-11T14:34:29.254Z,54.43
2022-10-11T14:36:56.901Z,54.60
2022-10-11T14:39:27.915Z,54.61
2022-10-11T14:41:55.958Z,54.47
2022-10-11T14:44:24.261Z,54.33
2022-10-11T14:46:54.812Z,54.27
2022-10-11T14:49:26.429Z,54.46
2022-10-11T14:51:56.998Z,54.56
2022-10-11T14:54:26.760Z,54.45
2022-10-11T14:56:57.137Z,54.56
2022-10-11T14:59:27.437Z,54.71
2022-10-11T15:01:55.203Z,54.58
2022-10-11T15:04:25.524Z,54.44
2022-10-11T15:06:55.752Z,54.57
2022-10-11T15:09:28.904Z,54.74
2022-10-11T15:11:56.910Z,54.70
2022-10-11T15:14:25.405Z,55.04
2022-10-11T15:16:53.535Z,55.24
2022-10-11T15:19:24.101Z,54.97
2022-10-11T15:21:52.698Z,54.37
2022-10-11T15:24:20.436Z,54.89
2022-10-11T15:26:49.287Z,54.64
2022-10-11T15:29:19.210Z,54.42
2022-10-11T15:31:49.514Z,54.74
2022-10-11T15:34:17.522Z,54.77
2022-10-11T15:36:45.411Z,54.97
2022-10-11T15:39:25.630Z,54.92
2022-10-11T15:41:53.717Z,54.78
2022-10-11T15:44:21.940Z,55.03
2022-10-11T15:46:49.991Z,54.81
2022-10-11T15:49:17.780Z,55.09
2022-10-11T15:51:46.219Z,54.91
2022-10-11T15:54:13.927Z,54.97
2022-10-11T15:56:41.851Z,55.02
2022-10-11T15:59:11.776Z,54.80
2022-10-11T16:01:39.773Z,54.93
2022-10-11T16:04:07.524Z,55.30
2022-10-11T16:06:35.421Z,55.18
2022-10-11T16:09:04.050Z,54.92
2022-10-11T16:11:31.857Z,55.06
2022-10-11T16:13:59.657Z,54.83
2022-10-11T16:16:28.686Z,54.88
2022-10-11T16:18:56.199Z,55.05
2022-10-11T16:21:24.450Z,55.18
2022-10-11T16:23:52.085Z,55.47
2022-10-11T16:26:20.190Z,55.45
2022-10-11T16:28:48.320Z,55.51
2022-10-11T16:31:20.708Z,55.43
2022-10-11T16:33:48.840Z,55.39
2022-10-11T16:36:32.139Z,55.67
2022-10-11T16:39:02.067Z,55.83
2022-10-11T16:41:29.724Z,55.57
2022-10-11T16:43:57.483Z,55.68
2022-10-11T16:46:25.208Z,55.87
2022-10-11T16:48:56.068Z,55.41
2022-10-11T16:51:24.502Z,55.35
2022-10-11T16:53:53.352Z,55.70
2022-10-11T16:56:22.779Z,55.67
2022-10-11T16:58:52.076Z,55.72
2022-10-11T17:01:20.422Z,56.52
2022-10-11T17:03:49.913Z,56.78
2022-10-11T17:06:18.092Z,55.93
2022-10-11T17:08:46.308Z,55.64
2022-10-11T17:11:14.636Z,55.33
2022-10-11T17:13:42.252Z,55.04
2022-10-11T17:16:10.249Z,55.09
2022-10-11T17:18:37.937Z,54.87
2022-10-11T17:21:11.523Z,55.26
2022-10-11T17:23:39.457Z,55.29
2022-10-11T17:26:11.518Z,55.48
2022-10-11T17:28:39.676Z,55.47
2022-10-11T17:31:08.428Z,55.33
2022-10-11T17:33:36.560Z,55.78
2022-10-11T17:36:14.883Z,55.62
2022-10-11T17:38:42.575Z,55.47
2022-10-11T17:41:10.919Z,55.57
2022-10-11T17:43:39.369Z,55.60
2022-10-11T17:46:08.875Z,55.62
2022-10-11T17:48:39.322Z,55.58
2022-10-11T17:51:14.917Z,55.19
2022-10-11T17:53:43.383Z,55.36
2022-10-11T17:56:14.526Z,55.38
2022-10-11T17:58:43.493Z,55.33
2022-10-11T18:01:18.486Z,55.28
2022-10-11T18:03:53.038Z,55.08
2022-10-11T18:06:21.084Z,55.13
2022-10-11T18:08:49.110Z,55.23
2022-10-11T18:11:19.553Z,55.69
2022-10-11T18:13:52.655Z,55.81
2022-10-11T18:16:22.978Z,55.39
2022-10-11T18:18:50.739Z,55.42
2022-10-11T18:21:19.006Z,55.50
2022-10-11T18:23:46.998Z,55.30
2022-10-11T18:26:20.757Z,55.77
2022-10-11T18:28:49.552Z,55.77
2022-10-11T18:31:20.592Z,55.92
2022-10-11T18:33:48.738Z,56.26
2022-10-11T18:36:18.471Z,56.49
2022-10-11T18:38:47.706Z,55.89
2022-10-11T18:41:18.224Z,55.87
2022-10-11T18:43:57.440Z,56.00
2022-10-11T18:46:25.552Z,55.93
2022-10-11T18:48:55.146Z,55.90
2022-10-11T18:51:24.291Z,55.61
2022-10-11T18:53:52.765Z,55.39
2022-10-11T18:56:23.128Z,55.03
2022-10-11T18:58:52.558Z,55.03
2022-10-11T19:01:23.162Z,54.83
2022-10-11T19:03:54.113Z,54.71
2022-10-11T19:06:25.279Z,54.37
2022-10-11T19:09:00.656Z,54.23
2022-10-11T19:11:28.775Z,54.23
2022-10-11T19:14:08.996Z,54.08
2022-10-11T19:16:40.002Z,54.08
2022-10-11T19:19:09.676Z,53.83
2022-10-11T19:21:38.190Z,53.74
2022-10-11T19:24:06.333Z,53.32
2022-10-11T19:26:38.734Z,53.41
2022-10-11T19:29:10.838Z,53.42
2022-10-11T19:32:07.679Z,53.38
2022-10-11T19:34:35.309Z,53.27
2022-10-11T19:37:04.224Z,53.48
2022-10-11T19:39:32.437Z,53.47
2022-10-11T19:42:00.986Z,53.20
2022-10-11T19:44:35.662Z,52.84
2022-10-11T19:47:06.492Z,53.27
2022-10-11T19:49:34.027Z,53.09
2022-10-11T19:52:01.622Z,53.52
2022-10-11T19:54:29.446Z,52.77
2022-10-11T19:56:57.108Z,53.05
2022-10-11T19:59:24.735Z,54.25
2022-10-11T20:01:53.474Z,54.38
2022-10-11T20:07:10.124Z,54.97
2022-10-11T20:09:39.403Z,54.55
2022-10-11T20:12:07.308Z,53.81
2022-10-11T20:14:34.993Z,53.45
2022-10-11T20:17:02.665Z,54.57
2022-10-11T20:19:31.578Z,53.56
2022-10-11T20:22:01.644Z,53.81
2022-10-11T20:24:33.285Z,53.45
2022-10-11T20:27:03.695Z,53.51
2022-10-11T20:29:33.280Z,53.86
2022-10-11T20:32:01.118Z,53.53
2022-10-11T20:34:28.968Z,53.26
2022-10-11T20:36:56.704Z,53.54
2022-10-11T20:39:25.315Z,54.10
2022-10-11T20:41:53.124Z,53.76
2022-10-11T20:44:20.804Z,53.39
2022-10-11T20:46:48.512Z,53.53
2022-10-11T20:49:16.230Z,53.44
2022-10-11T20:51:43.976Z,53.21
2022-10-11T20:54:12.078Z,52.88
2022-10-11T20:56:40.011Z,53.34
2022-10-11T20:59:08.277Z,53.32
2022-10-11T21:01:39.701Z,53.03
2022-10-11T21:04:15.981Z,53.13
2022-10-11T21:06:48.507Z,53.01
2022-10-11T21:09:17.389Z,52.95
2022-10-11T21:11:45.265Z,53.04
2022-10-11T21:14:13.121Z,53.13
2022-10-11T21:16:40.782Z,52.61
2022-10-11T21:19:14.326Z,52.92
2022-10-11T21:21:43.239Z,52.75
2022-10-11T21:24:11.138Z,53.14
2022-10-11T21:26:39.154Z,53.04
2022-10-11T21:29:07.714Z,53.00
2022-10-11T21:31:35.988Z,53.16
2022-10-11T21:34:05.384Z,52.43
2022-10-11T21:36:33.417Z,52.66
2022-10-11T21:39:01.080Z,52.13
2022-10-11T21:41:31.784Z,52.61
2022-10-11T21:43:59.592Z,52.57
2022-10-11T21:46:54.450Z,52.37
2022-10-11T21:49:18.645Z,52.58
2022-10-11T21:51:46.285Z,52.46
2022-10-11T21:54:13.990Z,52.60
2022-10-11T21:56:42.030Z,52.59
2022-10-11T21:59:12.912Z,52.37
2022-10-11T22:01:42.040Z,52.56
2022-10-11T22:04:11.334Z,52.16
2022-10-11T22:06:39.091Z,52.41
2022-10-11T22:09:08.583Z,52.37
2022-10-11T22:11:36.821Z,52.49
2022-10-11T22:14:05.028Z,52.10
2022-10-11T22:16:33.740Z,52.43
2022-10-11T22:19:01.619Z,52.58
2022-10-11T22:21:29.410Z,52.36
2022-10-11T22:23:57.213Z,52.33
2022-10-11T22:26:28.013Z,52.48
2022-10-11T22:28:55.914Z,52.42
2022-10-11T22:31:23.735Z,52.63
2022-10-11T22:33:59.550Z,52.19
2022-10-11T22:36:30.657Z,52.57
2022-10-11T22:38:58.883Z,52.86
2022-10-11T22:41:26.821Z,52.65
2022-10-11T22:43:54.550Z,52.62
2022-10-11T22:46:22.307Z,52.73
2022-10-11T22:48:50.017Z,52.81
2022-10-11T22:51:17.707Z,52.67
2022-10-11T22:53:45.397Z,52.88
2022-10-11T22:56:13.266Z,52.87
2022-10-11T22:58:40.954Z,52.94
2022-10-11T23:01:11.355Z,52.90
2022-10-11T23:03:40.005Z,52.93
2022-10-11T23:06:07.996Z,53.00
2022-10-11T23:08:35.590Z,52.74
2022-10-11T23:11:07.778Z,52.84
2022-10-11T23:13:36.174Z,52.84
2022-10-11T23:16:13.894Z,52.80
2022-10-11T23:18:42.825Z,52.81
2022-10-11T23:21:10.859Z,52.88
2022-10-11T23:23:40.116Z,52.72
2022-10-11T23:26:13.465Z,53.00
2022-10-11T23:28:42.185Z,52.52
2022-10-11T23:31:16.802Z,52.46
2022-10-11T23:33:46.108Z,52.58
2022-10-11T23:36:19.454Z,52.58
2022-10-11T23:38:58.708Z,52.32
2022-10-11T23:41:28.955Z,52.39
2022-10-11T23:43:58.273Z,52.34
2022-10-11T23:46:26.080Z,52.70
2022-10-11T23:48:53.666Z,52.33
2022-10-11T23:51:21.385Z,52.29
2022-10-11T23:53:48.960Z,52.71
2022-10-11T23:56:16.964Z,52.57
2022-10-11T23:58:44.932Z,52.40
